createdAt,value
2019-03-15T00:01:42.636Z,36.00
2019-03-15T00:04:12.034Z,36.50
2019-03-15T00:06:41.381Z,36.90
2019-03-15T00:09:11.123Z,37.50
2019-03-15T00:11:40.555Z,37.20
2019-03-15T00:14:09.915Z,37.50
2019-03-15T00:16:39.357Z,37.20
2019-03-15T00:19:08.824Z,37.10
2019-03-15T00:21:38.214Z,36.60
2019-03-15T00:24:07.523Z,36.10
2019-03-15T00:26:36.870Z,34.80
2019-03-15T00:29:06.252Z,34.10
2019-03-15T00:31:35.634Z,34.20
2019-03-15T00:34:05.083Z,35.20
2019-03-15T00:36:34.449Z,35.90
2019-03-15T00:39:04.486Z,35.80
2019-03-15T00:41:33.962Z,35.90
2019-03-15T00:44:03.430Z,36.10
2019-03-15T00:46:32.976Z,36.60
2019-03-15T00:49:02.436Z,37.00
2019-03-15T00:51:31.798Z,37.00
2019-03-15T00:54:01.177Z,37.40
2019-03-15T00:56:30.633Z,37.70
2019-03-15T00:58:59.974Z,38.00
2019-03-15T01:01:29.395Z,38.20
2019-03-15T01:03:58.817Z,38.30
2019-03-15T01:06:28.164Z,38.40
2019-03-15T01:08:57.615Z,38.60
2019-03-15T01:11:27.050Z,38.70
2019-03-15T01:13:56.386Z,39.10
2019-03-15T01:16:25.741Z,39.20
2019-03-15T01:18:55.111Z,39.30
2019-03-15T01:21:24.448Z,39.30
2019-03-15T01:23:53.821Z,39.30
2019-03-15T01:26:23.234Z,39.50
2019-03-15T01:28:52.653Z,39.80
2019-03-15T01:31:22.057Z,39.80
2019-03-15T01:33:51.496Z,39.70
2019-03-15T01:36:20.895Z,40.20
2019-03-15T01:38:50.325Z,40.30
2019-03-15T01:41:19.721Z,40.30
2019-03-15T01:43:49.111Z,40.60
2019-03-15T01:46:18.588Z,40.90
2019-03-15T01:48:48.320Z,41.30
2019-03-15T01:51:17.774Z,41.60
2019-03-15T01:53:47.140Z,41.80
2019-03-15T01:56:16.596Z,42.30
2019-03-15T01:58:46.035Z,42.60
2019-03-15T02:01:15.502Z,42.90
2019-03-15T02:03:45.010Z,43.00
2019-03-15T02:06:14.422Z,43.10
2019-03-15T02:08:43.796Z,43.80
2019-03-15T02:11:13.227Z,43.20
2019-03-15T02:13:42.581Z,43.40
2019-03-15T02:16:11.979Z,43.70
2019-03-15T02:18:41.394Z,44.40
2019-03-15T02:21:10.745Z,44.60
2019-03-15T02:23:40.141Z,45.10
2019-03-15T02:26:09.501Z,45.60
2019-03-15T02:28:38.983Z,46.20
2019-03-15T02:35:14.221Z,46.90
2019-03-15T02:37:43.548Z,46.50
2019-03-15T02:40:13.159Z,46.50
2019-03-15T02:42:42.803Z,46.60
2019-03-15T02:45:12.145Z,46.80
2019-03-15T02:47:41.519Z,46.90
2019-03-15T02:50:10.999Z,46.90
2019-03-15T02:52:40.445Z,46.90
2019-03-15T02:55:09.858Z,47.30
2019-03-15T02:57:39.329Z,47.20
2019-03-15T03:00:08.881Z,47.30
2019-03-15T03:02:38.333Z,47.60
2019-03-15T03:05:08.283Z,47.80
2019-03-15T03:07:38.009Z,48.20
2019-03-15T03:10:07.771Z,48.50
2019-03-15T03:12:37.248Z,48.80
2019-03-15T03:15:06.705Z,49.00
2019-03-15T03:17:36.105Z,49.30
2019-03-15T03:20:05.630Z,49.60
2019-03-15T03:22:36.016Z,50.00
2019-03-15T03:25:06.623Z,50.50
2019-03-15T03:27:36.045Z,50.70
2019-03-15T03:30:05.648Z,51.00
2019-03-15T03:32:35.106Z,51.20
2019-03-15T03:35:04.737Z,51.30
2019-03-15T03:37:34.130Z,51.60
2019-03-15T03:40:03.847Z,51.40
2019-03-15T03:42:33.295Z,51.60
2019-03-15T03:45:03.020Z,51.50
2019-03-15T03:47:32.825Z,51.60
2019-03-15T03:50:02.561Z,51.60
2019-03-15T03:52:32.001Z,51.70
2019-03-15T03:55:01.565Z,52.00
2019-03-15T03:57:30.984Z,52.00
2019-03-15T04:00:00.425Z,52.00
2019-03-15T04:02:32.867Z,52.00
2019-03-15T04:05:01.218Z,52.00
2019-03-15T04:07:30.698Z,51.90
2019-03-15T04:10:00.374Z,51.50
2019-03-15T04:12:29.903Z,51.30
2019-03-15T04:14:59.270Z,51.20
2019-03-15T04:17:28.643Z,51.20
2019-03-15T04:19:58.118Z,51.10
2019-03-15T04:22:27.534Z,51.00
2019-03-15T04:24:56.919Z,50.80
2019-03-15T04:27:26.302Z,50.90
2019-03-15T04:29:55.665Z,50.80
2019-03-15T04:32:24.998Z,50.80
2019-03-15T04:34:54.461Z,50.50
2019-03-15T04:37:23.767Z,50.20
2019-03-15T04:39:53.206Z,50.60
2019-03-15T04:42:22.627Z,51.30
2019-03-15T04:44:51.994Z,50.90
2019-03-15T04:47:21.380Z,50.70
2019-03-15T04:49:50.732Z,50.60
2019-03-15T04:52:20.220Z,50.50
2019-03-15T04:54:49.653Z,50.40
2019-03-15T04:57:20.131Z,50.40
2019-03-15T04:59:49.506Z,50.30
2019-03-15T05:02:18.864Z,50.40
2019-03-15T05:04:48.335Z,50.50
2019-03-15T05:07:17.727Z,51.00
2019-03-15T05:09:47.045Z,51.20
2019-03-15T05:12:16.445Z,51.30
2019-03-15T05:14:45.780Z,51.50
2019-03-15T05:17:15.166Z,51.90
2019-03-15T05:19:44.523Z,52.20
2019-03-15T05:22:13.979Z,52.30
2019-03-15T05:24:43.413Z,52.40
2019-03-15T05:27:12.874Z,52.80
2019-03-15T05:29:42.357Z,52.90
2019-03-15T05:32:11.846Z,52.90
2019-03-15T05:34:41.251Z,52.70
2019-03-15T05:37:10.581Z,52.70
2019-03-15T05:39:39.980Z,52.60
2019-03-15T05:42:09.386Z,52.50
2019-03-15T05:44:38.753Z,52.50
2019-03-15T05:47:08.201Z,52.60
2019-03-15T05:49:37.551Z,52.90
2019-03-15T05:52:06.983Z,52.80
2019-03-15T05:54:36.450Z,52.70
2019-03-15T05:57:05.900Z,52.60
2019-03-15T05:59:35.257Z,52.50
2019-03-15T06:02:04.668Z,52.40
2019-03-15T06:04:34.115Z,52.70
2019-03-15T06:07:03.593Z,53.00
2019-03-15T06:09:32.976Z,53.00
2019-03-15T06:12:02.394Z,52.50
2019-03-15T06:14:31.821Z,53.00
2019-03-15T06:17:01.285Z,53.10
2019-03-15T06:19:30.673Z,53.10
2019-03-15T06:22:00.127Z,53.20
2019-03-15T06:24:29.608Z,53.40
2019-03-15T06:26:59.075Z,53.30
2019-03-15T06:29:28.520Z,53.20
2019-03-15T06:31:57.857Z,53.40
2019-03-15T06:34:27.309Z,54.20
2019-03-15T06:36:56.671Z,53.30
2019-03-15T06:39:26.096Z,52.50
2019-03-15T06:41:55.555Z,52.30
2019-03-15T06:44:25.002Z,52.10
2019-03-15T06:46:54.444Z,51.90
2019-03-15T06:49:24.763Z,51.70
2019-03-15T06:51:54.195Z,51.60
2019-03-15T06:54:23.614Z,51.10
2019-03-15T06:56:52.990Z,51.10
2019-03-15T06:59:22.457Z,50.90
2019-03-15T07:01:51.918Z,51.00
2019-03-15T07:04:21.248Z,50.80
2019-03-15T07:06:50.742Z,51.00
2019-03-15T07:09:20.184Z,51.60
2019-03-15T07:11:49.670Z,50.80
2019-03-15T07:14:19.091Z,51.00
2019-03-15T07:16:48.457Z,50.70
2019-03-15T07:19:27.366Z,50.60
2019-03-15T07:21:49.550Z,50.60
2019-03-15T07:24:24.883Z,50.50
2019-03-15T07:26:50.337Z,50.40
2019-03-15T07:29:19.789Z,50.10
2019-03-15T07:31:49.290Z,50.20
2019-03-15T07:34:18.736Z,49.70
2019-03-15T07:36:48.187Z,49.50
2019-03-15T07:39:17.672Z,49.50
2019-03-15T07:41:47.110Z,49.00
2019-03-15T07:44:16.548Z,48.60
2019-03-15T07:46:45.938Z,48.90
2019-03-15T07:49:15.358Z,48.50
2019-03-15T07:51:44.817Z,48.60
2019-03-15T07:54:14.282Z,48.40
2019-03-15T07:56:43.729Z,47.00
2019-03-15T07:59:13.181Z,47.20
2019-03-15T08:01:42.638Z,47.70
2019-03-15T08:04:17.198Z,46.80
2019-03-15T08:06:43.069Z,46.10
2019-03-15T08:09:12.509Z,46.80
2019-03-15T08:11:41.888Z,45.50
2019-03-15T08:14:11.324Z,46.10
2019-03-15T08:16:40.733Z,45.30
2019-03-15T08:19:10.168Z,44.50
2019-03-15T08:21:39.640Z,44.30
2019-03-15T08:24:09.036Z,44.80
2019-03-15T08:26:38.381Z,44.30
2019-03-15T08:29:09.708Z,44.90
2019-03-15T08:31:38.978Z,44.90
2019-03-15T08:34:08.388Z,44.80
2019-03-15T08:36:37.796Z,44.40
2019-03-15T08:39:07.865Z,44.20
2019-03-15T08:41:37.319Z,43.10
2019-03-15T08:44:06.705Z,42.30
2019-03-15T08:46:36.085Z,42.60
2019-03-15T08:49:05.427Z,43.10
2019-03-15T08:51:34.891Z,43.40
2019-03-15T08:54:04.381Z,45.00
2019-03-15T08:56:33.821Z,43.20
2019-03-15T08:59:03.315Z,42.60
2019-03-15T09:01:32.815Z,42.70
2019-03-15T09:04:02.219Z,42.50
2019-03-15T09:06:31.623Z,42.20
2019-03-15T09:09:01.041Z,41.60
2019-03-15T09:11:30.425Z,41.70
2019-03-15T09:13:59.785Z,41.30
2019-03-15T09:16:29.244Z,41.80
2019-03-15T09:18:58.674Z,42.50
2019-03-15T09:21:28.147Z,40.70
2019-03-15T09:23:57.512Z,40.80
2019-03-15T09:26:26.871Z,41.60
2019-03-15T09:28:56.359Z,39.80
2019-03-15T09:31:25.816Z,42.30
2019-03-15T09:33:55.154Z,41.70
2019-03-15T09:36:24.568Z,41.60
2019-03-15T09:38:54.061Z,42.20
2019-03-15T09:41:32.060Z,42.10
2019-03-15T09:43:54.579Z,41.90
2019-03-15T09:46:24.013Z,41.80
2019-03-15T09:48:53.362Z,42.10
2019-03-15T09:51:22.873Z,42.20
2019-03-15T09:53:52.255Z,40.80
2019-03-15T09:56:21.673Z,41.90
2019-03-15T09:58:51.104Z,41.10
2019-03-15T10:01:34.166Z,40.60
2019-03-15T10:03:51.614Z,39.10
2019-03-15T10:06:21.061Z,39.30
2019-03-15T10:08:50.419Z,38.60
2019-03-15T10:11:19.864Z,38.90
2019-03-15T10:13:49.233Z,42.00
2019-03-15T10:16:18.671Z,41.30
2019-03-15T10:18:50.592Z,39.40
2019-03-15T10:21:19.160Z,40.00
2019-03-15T10:23:48.537Z,39.90
2019-03-15T10:26:18.059Z,40.10
2019-03-15T10:28:47.524Z,40.20
2019-03-15T10:31:16.873Z,41.00
2019-03-15T10:33:50.768Z,40.20
2019-03-15T10:36:17.652Z,40.70
2019-03-15T10:38:47.053Z,39.60
2019-03-15T10:41:16.425Z,39.70
2019-03-15T10:43:45.832Z,40.20
2019-03-15T10:46:15.216Z,40.70
2019-03-15T10:48:44.667Z,40.10
2019-03-15T10:51:14.125Z,39.70
2019-03-15T10:53:43.548Z,39.70
2019-03-15T10:56:13.037Z,40.30
2019-03-15T10:58:42.488Z,41.00
2019-03-15T11:01:11.926Z,40.20
2019-03-15T11:03:41.389Z,39.60
2019-03-15T11:06:10.806Z,40.10
2019-03-15T11:08:40.183Z,39.90
2019-03-15T11:11:09.613Z,39.10
2019-03-15T11:13:38.938Z,39.20
2019-03-15T11:16:08.395Z,40.90
2019-03-15T11:18:37.853Z,39.90
2019-03-15T11:21:07.268Z,41.10
2019-03-15T11:23:36.754Z,39.60
2019-03-15T11:26:13.421Z,39.20
2019-03-15T11:28:37.293Z,39.50
2019-03-15T11:31:06.754Z,40.30
2019-03-15T11:33:36.208Z,39.10
2019-03-15T11:36:05.667Z,39.00
2019-03-15T11:38:35.139Z,40.80
2019-03-15T11:41:04.573Z,41.90
2019-03-15T11:43:33.967Z,41.00
2019-03-15T11:46:03.438Z,40.60
2019-03-15T11:48:32.876Z,40.90
2019-03-15T11:51:02.266Z,40.30
2019-03-15T11:53:31.715Z,41.50
2019-03-15T11:56:02.127Z,41.10
2019-03-15T11:58:31.591Z,40.10
2019-03-15T12:01:01.046Z,40.20
2019-03-15T12:03:30.443Z,40.40
2019-03-15T12:05:59.894Z,41.10
2019-03-15T12:08:29.374Z,39.90
2019-03-15T12:10:58.801Z,40.00
2019-03-15T12:13:28.228Z,40.80
2019-03-15T12:15:57.602Z,40.50
2019-03-15T12:18:27.044Z,42.00
2019-03-15T12:20:56.440Z,42.20
2019-03-15T12:23:25.876Z,42.50
2019-03-15T12:25:55.333Z,39.80
2019-03-15T12:28:24.716Z,41.50
2019-03-15T12:30:54.161Z,40.50
2019-03-15T12:33:23.628Z,40.70
2019-03-15T12:35:53.028Z,40.90
2019-03-15T12:38:22.383Z,41.00
2019-03-15T12:40:51.862Z,41.70
2019-03-15T12:43:21.329Z,40.90
2019-03-15T12:45:50.771Z,42.10
2019-03-15T12:48:20.211Z,41.60
2019-03-15T12:50:49.742Z,41.30
2019-03-15T12:53:19.107Z,41.30
2019-03-15T12:55:48.462Z,41.70
2019-03-15T12:58:17.935Z,42.20
2019-03-15T13:00:47.309Z,42.90
2019-03-15T13:03:16.688Z,43.60
2019-03-15T13:05:46.066Z,43.40
2019-03-15T13:08:15.455Z,42.30
2019-03-15T13:10:44.877Z,41.20
2019-03-15T13:13:14.278Z,41.90
2019-03-15T13:15:43.648Z,42.50
2019-03-15T13:18:13.074Z,42.40
2019-03-15T13:20:42.522Z,42.30
2019-03-15T13:23:11.987Z,42.50
2019-03-15T13:25:41.362Z,42.30
2019-03-15T13:28:10.697Z,42.30
2019-03-15T13:30:40.173Z,42.10
2019-03-15T13:33:19.545Z,43.10
2019-03-15T13:35:40.615Z,44.10
2019-03-15T13:38:10.215Z,43.90
2019-03-15T13:40:39.538Z,43.30
2019-03-15T13:43:08.979Z,43.30
2019-03-15T13:45:38.425Z,43.00
2019-03-15T13:48:07.850Z,43.40
2019-03-15T13:50:37.288Z,44.40
2019-03-15T13:53:06.850Z,44.10
2019-03-15T13:55:36.321Z,43.80
2019-03-15T13:58:05.669Z,44.50
2019-03-15T14:00:35.058Z,45.30
2019-03-15T14:03:04.532Z,45.20
2019-03-15T14:05:33.955Z,44.90
2019-03-15T14:08:11.611Z,45.50
2019-03-15T14:10:34.494Z,45.30
2019-03-15T14:13:03.933Z,46.20
2019-03-15T14:15:33.413Z,46.60
2019-03-15T14:18:02.832Z,45.80
2019-03-15T14:20:32.234Z,46.50
2019-03-15T14:23:01.668Z,45.00
2019-03-15T14:25:32.367Z,45.30
2019-03-15T14:28:01.789Z,44.70
2019-03-15T14:30:31.312Z,44.00
2019-03-15T14:33:00.695Z,41.80
2019-03-15T14:35:30.138Z,42.10
2019-03-15T14:37:59.679Z,42.30
2019-03-15T14:40:29.053Z,41.00
2019-03-15T14:42:58.729Z,41.70
2019-03-15T14:45:28.332Z,40.00
2019-03-15T14:47:57.748Z,37.10
2019-03-15T14:50:27.218Z,34.30
2019-03-15T14:52:56.701Z,33.60
2019-03-15T14:55:26.155Z,31.80
2019-03-15T14:57:55.675Z,31.80
2019-03-15T15:00:26.340Z,31.90
2019-03-15T15:02:55.758Z,31.90
2019-03-15T15:05:25.165Z,32.30
2019-03-15T15:07:54.601Z,31.50
2019-03-15T15:10:24.118Z,31.30
2019-03-15T15:12:53.555Z,29.70
2019-03-15T15:15:22.945Z,29.60
2019-03-15T15:17:52.433Z,29.30
2019-03-15T15:20:21.853Z,29.10
2019-03-15T15:22:51.234Z,29.10
2019-03-15T15:25:20.706Z,29.00
2019-03-15T15:27:50.063Z,30.00
2019-03-15T15:30:19.568Z,29.60
2019-03-15T15:32:48.927Z,30.00
2019-03-15T15:35:18.346Z,30.60
2019-03-15T15:37:47.705Z,30.70
2019-03-15T15:40:17.128Z,30.00
2019-03-15T15:42:46.481Z,30.00
2019-03-15T15:45:15.958Z,29.80
2019-03-15T15:47:45.413Z,30.00
2019-03-15T15:50:14.914Z,30.00
2019-03-15T15:52:44.266Z,29.40
2019-03-15T15:55:13.737Z,29.50
2019-03-15T15:57:43.183Z,29.80
2019-03-15T16:00:12.756Z,30.20
2019-03-15T16:02:42.222Z,29.90
2019-03-15T16:05:11.781Z,29.60
2019-03-15T16:07:41.150Z,29.50
2019-03-15T16:10:11.549Z,29.90
2019-03-15T16:12:41.466Z,30.00
2019-03-15T16:15:11.589Z,29.90
2019-03-15T16:17:41.035Z,29.80
2019-03-15T16:20:10.657Z,29.70
2019-03-15T16:22:40.205Z,29.70
2019-03-15T16:25:09.772Z,29.70
2019-03-15T16:27:39.250Z,30.00
2019-03-15T16:30:10.862Z,29.80
2019-03-15T16:32:40.306Z,30.20
2019-03-15T16:35:10.972Z,30.00
2019-03-15T16:37:40.452Z,29.90
2019-03-15T16:40:10.200Z,30.00
2019-03-15T16:42:39.620Z,29.70
2019-03-15T16:45:11.491Z,29.80
2019-03-15T16:47:40.848Z,29.70
2019-03-15T16:50:11.017Z,29.50
2019-03-15T16:52:40.412Z,29.50
2019-03-15T16:55:10.553Z,29.60
2019-03-15T16:57:39.994Z,29.40
2019-03-15T17:00:10.268Z,29.50
2019-03-15T17:02:39.788Z,29.60
2019-03-15T17:05:09.631Z,29.90
2019-03-15T17:07:39.097Z,29.80
2019-03-15T17:10:09.494Z,30.60
2019-03-15T17:12:38.950Z,29.90
2019-03-15T17:15:09.926Z,29.90
2019-03-15T17:17:39.396Z,29.80
2019-03-15T17:20:09.549Z,29.70
2019-03-15T17:22:38.950Z,29.80
2019-03-15T17:25:08.891Z,29.60
2019-03-15T17:27:38.340Z,29.60
2019-03-15T17:30:09.807Z,29.60
2019-03-15T17:32:39.291Z,29.60
2019-03-15T17:35:09.891Z,29.70
2019-03-15T17:37:39.312Z,30.10
2019-03-15T17:40:10.357Z,29.50
2019-03-15T17:42:39.791Z,29.50
2019-03-15T17:45:09.697Z,29.70
2019-03-15T17:47:39.075Z,29.40
2019-03-15T17:50:11.504Z,29.50
2019-03-15T17:52:40.962Z,29.40
2019-03-15T17:55:10.715Z,29.40
2019-03-15T17:57:40.174Z,29.40
2019-03-15T18:00:29.583Z,29.40
2019-03-15T18:02:58.985Z,29.40
2019-03-15T18:05:28.401Z,29.40
2019-03-15T18:07:57.772Z,29.40
2019-03-15T18:10:27.183Z,29.40
2019-03-15T18:12:56.748Z,29.30
2019-03-15T18:15:26.341Z,29.20
2019-03-15T18:17:55.895Z,29.20
2019-03-15T18:20:25.321Z,29.20
2019-03-15T18:22:54.801Z,29.30
2019-03-15T18:25:24.211Z,29.10
2019-03-15T18:27:54.178Z,29.20
2019-03-15T18:30:23.571Z,29.20
2019-03-15T18:32:52.918Z,29.20
2019-03-15T18:35:33.116Z,29.20
2019-03-15T18:37:53.474Z,29.30
2019-03-15T18:40:22.940Z,29.30
2019-03-15T18:42:52.558Z,29.30
2019-03-15T18:45:22.045Z,29.30
2019-03-15T18:47:51.473Z,29.40
2019-03-15T18:50:22.058Z,29.20
2019-03-15T18:52:52.061Z,29.30
2019-03-15T18:55:21.497Z,29.20
2019-03-15T18:57:51.035Z,29.30
2019-03-15T19:00:20.482Z,29.30
2019-03-15T19:02:49.941Z,29.20
2019-03-15T19:05:19.553Z,29.20
2019-03-15T19:07:49.029Z,29.30
2019-03-15T19:10:18.501Z,29.40
2019-03-15T19:12:47.874Z,29.50
2019-03-15T19:15:17.295Z,29.50
2019-03-15T19:17:46.721Z,29.60
2019-03-15T19:20:16.219Z,29.60
2019-03-15T19:22:45.679Z,29.60
2019-03-15T19:25:15.133Z,29.70
2019-03-15T19:27:44.600Z,29.70
2019-03-15T19:30:14.058Z,29.60
2019-03-15T19:32:43.520Z,29.60
2019-03-15T19:35:12.979Z,29.70
2019-03-15T19:37:42.486Z,29.70
2019-03-15T19:40:12.602Z,29.70
2019-03-15T19:42:44.798Z,29.70
2019-03-15T19:45:13.776Z,29.80
2019-03-15T19:47:43.556Z,29.80
2019-03-15T19:50:14.019Z,30.30
2019-03-15T19:52:43.559Z,29.80
2019-03-15T19:55:13.421Z,29.80
2019-03-15T19:57:42.843Z,29.70
2019-03-15T20:00:15.774Z,30.00
2019-03-15T20:02:45.260Z,29.90
2019-03-15T20:05:14.714Z,30.00
2019-03-15T20:07:44.362Z,30.00
2019-03-15T20:10:16.516Z,30.00
2019-03-15T20:12:45.258Z,30.00
2019-03-15T20:15:15.148Z,30.00
2019-03-15T20:17:44.566Z,30.00
2019-03-15T20:20:14.221Z,30.20
2019-03-15T20:22:43.697Z,30.40
2019-03-15T20:25:13.194Z,30.60
2019-03-15T20:27:42.593Z,30.90
2019-03-15T20:30:21.162Z,31.00
2019-03-15T20:32:45.579Z,31.30
2019-03-15T20:35:15.114Z,32.00
2019-03-15T20:37:44.549Z,32.40
2019-03-15T20:40:14.013Z,33.00
2019-03-15T20:42:43.436Z,33.50
2019-03-15T20:45:14.076Z,34.00
2019-03-15T20:47:43.822Z,34.00
2019-03-15T20:50:13.362Z,34.00
2019-03-15T20:52:42.760Z,33.90
2019-03-15T20:55:12.320Z,34.00
2019-03-15T20:57:41.800Z,33.50
2019-03-15T21:00:13.228Z,33.50
2019-03-15T21:02:42.784Z,33.60
2019-03-15T21:05:12.535Z,33.90
2019-03-15T21:07:43.815Z,33.70
2019-03-15T21:10:13.524Z,33.90
2019-03-15T21:12:42.963Z,35.20
2019-03-15T21:15:12.510Z,35.70
2019-03-15T21:17:42.057Z,36.70
2019-03-15T21:20:12.159Z,37.70
2019-03-15T21:22:41.673Z,38.50
2019-03-15T21:25:11.162Z,38.30
2019-03-15T21:27:52.926Z,38.90
2019-03-15T21:30:13.793Z,38.60
2019-03-15T21:32:43.287Z,38.60
2019-03-15T21:35:12.750Z,38.90
2019-03-15T21:37:42.199Z,39.40
2019-03-15T21:40:11.891Z,40.30
2019-03-15T21:42:41.360Z,40.30
2019-03-15T21:45:10.887Z,41.40
2019-03-15T21:47:40.298Z,42.10
2019-03-15T21:50:11.283Z,41.70
2019-03-15T21:52:40.714Z,41.60
2019-03-15T21:55:10.558Z,42.70
2019-03-15T21:57:39.983Z,41.80
2019-03-15T22:00:10.952Z,42.00
2019-03-15T22:02:40.373Z,42.10
2019-03-15T22:05:10.210Z,41.80
2019-03-15T22:07:39.905Z,41.90
2019-03-15T22:10:10.047Z,41.90
2019-03-15T22:12:39.553Z,41.90
2019-03-15T22:15:09.150Z,41.90
2019-03-15T22:17:38.733Z,42.00
2019-03-15T22:20:09.147Z,42.10
2019-03-15T22:22:38.562Z,42.20
2019-03-15T22:25:08.110Z,42.00
2019-03-15T22:27:37.611Z,42.20
2019-03-15T22:30:07.074Z,42.70
2019-03-15T22:32:36.517Z,42.20
2019-03-15T22:35:06.609Z,42.30
2019-03-15T22:37:36.003Z,42.40
2019-03-15T22:40:05.594Z,42.40
2019-03-15T22:42:34.958Z,42.30
2019-03-15T22:45:05.580Z,42.20
2019-03-15T22:47:34.988Z,42.30
2019-03-15T22:50:04.638Z,42.50
2019-03-15T22:52:34.110Z,42.50
2019-03-15T22:55:03.568Z,42.60
2019-03-15T22:57:33.050Z,42.70
2019-03-15T23:00:02.494Z,42.80
2019-03-15T23:02:31.985Z,42.80
2019-03-15T23:05:01.367Z,42.60
2019-03-15T23:07:30.824Z,42.40
2019-03-15T23:10:00.374Z,42.10
2019-03-15T23:12:29.850Z,42.40
2019-03-15T23:14:59.322Z,42.50
2019-03-15T23:17:28.824Z,42.90
2019-03-15T23:19:58.249Z,42.90
2019-03-15T23:22:27.710Z,42.60
2019-03-15T23:24:57.102Z,42.60
2019-03-15T23:27:26.555Z,42.70
2019-03-15T23:29:55.983Z,43.30
2019-03-15T23:32:25.417Z,43.40
2019-03-15T23:34:54.805Z,44.20
2019-03-15T23:37:24.190Z,43.50
2019-03-15T23:39:53.544Z,43.60
2019-03-15T23:42:22.970Z,43.70
2019-03-15T23:44:52.425Z,43.70
2019-03-15T23:47:21.902Z,43.60
2019-03-15T23:49:51.374Z,43.90
2019-03-15T23:52:20.785Z,44.20
2019-03-15T23:54:50.124Z,44.60
2019-03-15T23:57:19.529Z,44.60
2019-03-15T23:59:49.089Z,44.90
